»·PEaware :: UAL872 KSJC-KSBP

UAL872 :: KSJC-KSBP

FLIGHT INFORMATION

Flight Status: Arrived
Operator:
United Airlines
More flights by this operator :: More flights under this callsign
Pilot: Sergei F. (8485)
Aircraft: BOEING 737-600
(B736)
More flights by this aircraft type
Origin: KSJC Mineta San Jose Intl
United States
Destination: KSBP San Luis Co Regl
United States
More flights between these airports :: More routes between these airports
Route: SPTNS1 VLREE EBAYE MAKRS
File this flight plan on PilotEdge
Remarks:
Altitude:
(Current/Filed)
19,000ft
Speed:
(Current/Filed)
401kts
Departed: 18-Nov-23 08:35 PM
Arrived: 18-Nov-23 09:19 PM
Distance/Time
Traveled:
142nm/0:44
Distance/Time
To Go:
Arrived

Flight Plot

Page will automatically refresh every two minutes.

Flight plan parsing failed; only flown route is shown


Map Options




Map Legend


Flown Route
Filed Route
Departure Airport
Arrival Airport
Navaid (VOR, NDB)
Fix

Horizontal Profiles

Position Reports

Time Latitude Longitude Heading Altitude Ground
Speed
18-Nov-23 19:57 37.370614 -121.931830 49 60ft 0kts
18-Nov-23 19:58 37.370614 -121.931830 49 60ft 0kts
18-Nov-23 19:59 37.370614 -121.931830 49 60ft 0kts
18-Nov-23 20:00 37.370614 -121.931830 49 60ft 0kts
18-Nov-23 20:01 37.370614 -121.931830 49 60ft 0kts
18-Nov-23 20:02 37.370614 -121.931830 49 60ft 0kts
18-Nov-23 20:03 37.370614 -121.931830 49 60ft 0kts
18-Nov-23 20:04 37.370614 -121.931830 49 60ft 0kts
18-Nov-23 20:05 37.370614 -121.931830 49 60ft 0kts
18-Nov-23 20:06 37.370614 -121.931830 49 60ft 0kts
18-Nov-23 20:07 37.370614 -121.931830 49 60ft 0kts
18-Nov-23 20:08 37.370614 -121.931830 49 60ft 0kts
18-Nov-23 20:09 37.370614 -121.931830 49 60ft 0kts
18-Nov-23 20:10 37.370614 -121.931830 49 41ft 0kts
18-Nov-23 20:11 37.370614 -121.931830 49 41ft 0kts
18-Nov-23 20:12 37.370614 -121.931830 49 41ft 0kts
18-Nov-23 20:13 37.370614 -121.931830 49 41ft 0kts
18-Nov-23 20:14 37.370614 -121.931830 49 41ft 0kts
18-Nov-23 20:15 37.370614 -121.931830 49 41ft 0kts
18-Nov-23 20:16 37.370614 -121.931830 49 41ft 0kts
18-Nov-23 20:17 37.370523 -121.931962 49 54ft 2kts
18-Nov-23 20:18 37.370519 -121.932685 138 51ft 0kts
18-Nov-23 20:19 37.370519 -121.932685 138 51ft 0kts
18-Nov-23 20:20 37.370519 -121.932685 138 51ft 0kts
18-Nov-23 20:21 37.370519 -121.932685 138 51ft 0kts
18-Nov-23 20:22 37.370519 -121.932685 138 51ft 0kts
18-Nov-23 20:23 37.370519 -121.932685 138 60ft 0kts
18-Nov-23 20:24 37.369426 -121.931500 139 54ft 6kts
18-Nov-23 20:25 37.367553 -121.929448 138 60ft 11kts
18-Nov-23 20:26 37.365225 -121.926899 138 61ft 10kts
18-Nov-23 20:27 37.362405 -121.923800 138 58ft 14kts
18-Nov-23 20:28 37.359634 -121.920764 138 56ft 12kts
18-Nov-23 20:29 37.357017 -121.917896 139 56ft 12kts
18-Nov-23 20:30 37.354576 -121.915221 140 58ft 11kts
18-Nov-23 20:31 37.353663 -121.914253 141 57ft 0kts
18-Nov-23 20:32 37.352889 -121.914739 228 57ft 4kts
18-Nov-23 20:33 37.352890 -121.915941 318 54ft 12kts
18-Nov-23 20:34 37.378293 -121.943309 318 1771ft 153kts
18-Nov-23 20:35 37.424495 -121.974329 18 3298ft 253kts
18-Nov-23 20:36 37.431968 -121.899933 142 4994ft 256kts
18-Nov-23 20:37 37.377228 -121.842741 142 4984ft 254kts
18-Nov-23 20:38 37.324841 -121.783821 142 4999ft 253kts
18-Nov-23 20:39 37.270988 -121.722819 142 8167ft 268kts
18-Nov-23 20:40 37.211697 -121.655795 141 10929ft 324kts
18-Nov-23 20:41 37.142462 -121.577373 141 14464ft 345kts
18-Nov-23 20:42 37.068676 -121.494111 142 17828ft 368kts
18-Nov-23 20:43 36.986659 -121.406210 143 19147ft 406kts
18-Nov-23 20:44 36.900913 -121.315133 143 19168ft 404kts
18-Nov-23 20:45 36.815147 -121.224037 143 19161ft 405kts
18-Nov-23 20:46 36.729606 -121.133432 143 19153ft 404kts
18-Nov-23 20:47 36.643644 -121.042588 143 19142ft 403kts
18-Nov-23 20:48 36.557636 -120.953584 144 19141ft 401kts
18-Nov-23 20:49 36.471160 -120.866129 145 19136ft 401kts
18-Nov-23 20:50 36.384782 -120.778626 145 19143ft 400kts
18-Nov-23 20:51 36.298778 -120.691699 145 19134ft 397kts
18-Nov-23 20:52 36.213194 -120.605457 145 19128ft 396kts
18-Nov-23 20:53 36.127741 -120.519588 145 19127ft 396kts
18-Nov-23 20:54 36.041955 -120.433610 145 19128ft 395kts
18-Nov-23 20:55 35.956913 -120.348547 145 19143ft 394kts
18-Nov-23 20:56 35.870544 -120.275792 173 19139ft 365kts
18-Nov-23 20:57 35.775250 -120.301884 202 17289ft 346kts
18-Nov-23 20:58 35.686617 -120.342548 200 14869ft 334kts
18-Nov-23 20:59 35.600211 -120.381860 200 12495ft 323kts
18-Nov-23 21:00 35.523941 -120.432878 210 10608ft 305kts
18-Nov-23 21:01 35.456967 -120.481735 208 10179ft 256kts
18-Nov-23 21:02 35.400166 -120.520981 208 9859ft 219kts
18-Nov-23 21:03 35.348007 -120.557158 208 9028ft 205kts
18-Nov-23 21:04 35.293683 -120.545162 155 8061ft 234kts
18-Nov-23 21:05 35.236275 -120.508469 156 7071ft 227kts
18-Nov-23 21:06 35.180806 -120.473933 156 6995ft 221kts
18-Nov-23 21:07 35.125203 -120.439646 156 6992ft 226kts
18-Nov-23 21:08 35.067217 -120.412676 162 6784ft 219kts
18-Nov-23 21:09 35.010051 -120.385291 145 5675ft 222kts
18-Nov-23 21:10 35.007257 -120.314276 45 4620ft 250kts
18-Nov-23 21:11 35.065919 -120.329978 301 3948ft 241kts
18-Nov-23 21:12 35.099028 -120.394635 297 3914ft 216kts
18-Nov-23 21:13 35.130435 -120.452788 299 3879ft 181kts
18-Nov-23 21:14 35.157538 -120.500636 300 3178ft 171kts
18-Nov-23 21:15 35.183912 -120.547112 301 2209ft 166kts
18-Nov-23 21:16 35.207256 -120.588200 303 1318ft 133kts
18-Nov-23 21:17 35.228272 -120.625012 303 407ft 125kts
18-Nov-23 21:18 35.239826 -120.645409 304 197ft 16kts
18-Nov-23 21:19 35.241444 -120.646369 121 187ft 7kts
18-Nov-23 21:20 35.240389 -120.644494 124 187ft 6kts
18-Nov-23 21:21 35.239401 -120.642747 124 186ft 6kts
18-Nov-23 21:22 35.238413 -120.641205 125 187ft 5kts
18-Nov-23 21:23 35.237596 -120.639571 123 186ft 6kts
18-Nov-23 21:24 35.237446 -120.637510 89 186ft 5kts
18-Nov-23 21:25 35.238298 -120.637381 301 186ft 2kts
18-Nov-23 21:26 35.238375 -120.637543 300 186ft 0kts
18-Nov-23 21:27 35.238375 -120.637543 300 186ft 0kts
18-Nov-23 21:28 35.238375 -120.637543 300 186ft 0kts
18-Nov-23 21:29 35.238375 -120.637543 300 186ft 0kts
18-Nov-23 21:30 35.238375 -120.637543 300 186ft 0kts
18-Nov-23 21:31 35.238375 -120.637543 300 186ft 0kts
18-Nov-23 21:32 35.238375 -120.637543 300 186ft 0kts

Navigation Log

Ident Type
Flight plan parsing failed, navigation log unavailable